sensor_id;sensor_type;location;lat;lon;timestamp;P1;durP1;ratioP1;P2;durP2;ratioP2
13435;SDS011;6790;49.520;8.504;2023-11-21T00:02:20;4.00;;;2.30;;
13435;SDS011;6790;49.520;8.504;2023-11-21T00:04:47;4.53;;;2.70;;
13435;SDS011;6790;49.520;8.504;2023-11-21T00:07:13;2.40;;;2.00;;
13435;SDS011;6790;49.520;8.504;2023-11-21T00:09:40;5.40;;;2.20;;
13435;SDS011;6790;49.520;8.504;2023-11-21T00:12:06;2.37;;;2.17;;
13435;SDS011;6790;49.520;8.504;2023-11-21T00:14:36;5.33;;;2.30;;
13435;SDS011;6790;49.520;8.504;2023-11-21T00:17:03;4.50;;;2.70;;
13435;SDS011;6790;49.520;8.504;2023-11-21T00:19:30;3.30;;;3.03;;
13435;SDS011;6790;49.520;8.504;2023-11-21T00:21:56;3.07;;;2.43;;
13435;SDS011;6790;49.520;8.504;2023-11-21T00:24:23;3.90;;;2.23;;
13435;SDS011;6790;49.520;8.504;2023-11-21T00:26:50;4.13;;;2.40;;
13435;SDS011;6790;49.520;8.504;2023-11-21T00:29:16;2.30;;;2.10;;
13435;SDS011;6790;49.520;8.504;2023-11-21T00:31:43;2.33;;;2.13;;
13435;SDS011;6790;49.520;8.504;2023-11-21T00:34:11;4.70;;;2.30;;
13435;SDS011;6790;49.520;8.504;2023-11-21T00:36:37;2.53;;;2.03;;
13435;SDS011;6790;49.520;8.504;2023-11-21T00:39:03;4.30;;;3.27;;
13435;SDS011;6790;49.520;8.504;2023-11-21T00:41:30;2.00;;;1.90;;
13435;SDS011;6790;49.520;8.504;2023-11-21T00:43:57;2.80;;;2.40;;
13435;SDS011;6790;49.520;8.504;2023-11-21T00:46:24;4.53;;;2.77;;
13435;SDS011;6790;49.520;8.504;2023-11-21T00:48:52;3.27;;;2.97;;
13435;SDS011;6790;49.520;8.504;2023-11-21T00:51:19;2.40;;;2.17;;
13435;SDS011;6790;49.520;8.504;2023-11-21T00:53:45;5.03;;;2.50;;
13435;SDS011;6790;49.520;8.504;2023-11-21T00:56:11;2.57;;;1.83;;
13435;SDS011;6790;49.520;8.504;2023-11-21T00:58:38;3.37;;;2.33;;
13435;SDS011;6790;49.520;8.504;2023-11-21T01:01:07;2.40;;;2.20;;
13435;SDS011;6790;49.520;8.504;2023-11-21T01:03:33;3.43;;;2.13;;
13435;SDS011;6790;49.520;8.504;2023-11-21T01:05:58;2.60;;;1.90;;
13435;SDS011;6790;49.520;8.504;2023-11-21T01:08:24;4.83;;;2.63;;
13435;SDS011;6790;49.520;8.504;2023-11-21T01:10:50;2.80;;;2.60;;
13435;SDS011;6790;49.520;8.504;2023-11-21T01:13:15;2.90;;;2.20;;
13435;SDS011;6790;49.520;8.504;2023-11-21T01:15:41;3.57;;;2.53;;
13435;SDS011;6790;49.520;8.504;2023-11-21T01:18:07;2.60;;;2.17;;
13435;SDS011;6790;49.520;8.504;2023-11-21T01:20:36;2.70;;;2.50;;
13435;SDS011;6790;49.520;8.504;2023-11-21T01:23:01;2.20;;;2.00;;
13435;SDS011;6790;49.520;8.504;2023-11-21T01:25:27;4.57;;;2.37;;
13435;SDS011;6790;49.520;8.504;2023-11-21T01:27:53;4.57;;;2.27;;
13435;SDS011;6790;49.520;8.504;2023-11-21T01:30:18;2.40;;;2.20;;
13435;SDS011;6790;49.520;8.504;2023-11-21T01:32:44;3.40;;;2.50;;
13435;SDS011;6790;49.520;8.504;2023-11-21T01:35:10;2.57;;;2.37;;
13435;SDS011;6790;49.520;8.504;2023-11-21T01:37:36;2.57;;;2.37;;
13435;SDS011;6790;49.520;8.504;2023-11-21T01:40:03;3.73;;;2.33;;
13435;SDS011;6790;49.520;8.504;2023-11-21T01:42:33;3.13;;;2.43;;
13435;SDS011;6790;49.520;8.504;2023-11-21T01:44:59;2.87;;;2.57;;
13435;SDS011;6790;49.520;8.504;2023-11-21T01:47:29;2.67;;;2.47;;
13435;SDS011;6790;49.520;8.504;2023-11-21T01:49:57;2.40;;;2.20;;
13435;SDS011;6790;49.520;8.504;2023-11-21T01:52:23;2.83;;;2.40;;
13435;SDS011;6790;49.520;8.504;2023-11-21T01:54:49;2.37;;;2.17;;
13435;SDS011;6790;49.520;8.504;2023-11-21T01:57:15;6.50;;;2.73;;
13435;SDS011;6790;49.520;8.504;2023-11-21T01:59:41;4.40;;;2.73;;
13435;SDS011;6790;49.520;8.504;2023-11-21T02:02:09;2.67;;;2.47;;
13435;SDS011;6790;49.520;8.504;2023-11-21T02:04:35;3.20;;;2.50;;
13435;SDS011;6790;49.520;8.504;2023-11-21T02:07:02;3.93;;;2.40;;
13435;SDS011;6790;49.520;8.504;2023-11-21T02:09:31;2.50;;;2.30;;
13435;SDS011;6790;49.520;8.504;2023-11-21T02:11:58;6.10;;;2.87;;
13435;SDS011;6790;49.520;8.504;2023-11-21T02:14:24;4.40;;;2.60;;
13435;SDS011;6790;49.520;8.504;2023-11-21T02:16:53;3.00;;;2.80;;
13435;SDS011;6790;49.520;8.504;2023-11-21T02:19:22;2.37;;;2.17;;
13435;SDS011;6790;49.520;8.504;2023-11-21T02:21:50;5.27;;;2.33;;
13435;SDS011;6790;49.520;8.504;2023-11-21T02:24:18;5.13;;;2.67;;
13435;SDS011;6790;49.520;8.504;2023-11-21T02:26:48;4.07;;;2.30;;
13435;SDS011;6790;49.520;8.504;2023-11-21T02:29:16;2.90;;;2.67;;
13435;SDS011;6790;49.520;8.504;2023-11-21T02:31:43;3.23;;;2.93;;
13435;SDS011;6790;49.520;8.504;2023-11-21T02:34:15;3.07;;;2.77;;
13435;SDS011;6790;49.520;8.504;2023-11-21T02:36:42;2.97;;;2.77;;
13435;SDS011;6790;49.520;8.504;2023-11-21T02:39:11;2.60;;;2.40;;
13435;SDS011;6790;49.520;8.504;2023-11-21T02:41:37;2.97;;;2.73;;
13435;SDS011;6790;49.520;8.504;2023-11-21T02:44:04;2.60;;;2.40;;
13435;SDS011;6790;49.520;8.504;2023-11-21T02:46:31;2.57;;;2.13;;
13435;SDS011;6790;49.520;8.504;2023-11-21T02:48:59;3.90;;;3.03;;
13435;SDS011;6790;49.520;8.504;2023-11-21T02:51:29;2.60;;;2.40;;
13435;SDS011;6790;49.520;8.504;2023-11-21T02:53:55;2.97;;;2.70;;
13435;SDS011;6790;49.520;8.504;2023-11-21T02:56:25;3.17;;;2.67;;
13435;SDS011;6790;49.520;8.504;2023-11-21T02:58:51;3.27;;;2.97;;
13435;SDS011;6790;49.520;8.504;2023-11-21T03:01:20;4.53;;;2.50;;
13435;SDS011;6790;49.520;8.504;2023-11-21T03:03:45;3.80;;;2.77;;
13435;SDS011;6790;49.520;8.504;2023-11-21T03:06:12;3.90;;;2.43;;
13435;SDS011;6790;49.520;8.504;2023-11-21T03:08:38;2.50;;;2.30;;
13435;SDS011;6790;49.520;8.504;2023-11-21T03:11:03;3.40;;;3.10;;
13435;SDS011;6790;49.520;8.504;2023-11-21T03:13:29;4.53;;;2.67;;
13435;SDS011;6790;49.520;8.504;2023-11-21T03:15:55;2.33;;;2.13;;
13435;SDS011;6790;49.520;8.504;2023-11-21T03:18:21;5.00;;;2.77;;
13435;SDS011;6790;49.520;8.504;2023-11-21T03:20:47;6.43;;;2.30;;
13435;SDS011;6790;49.520;8.504;2023-11-21T03:23:13;2.80;;;2.40;;
13435;SDS011;6790;49.520;8.504;2023-11-21T03:25:38;5.43;;;2.97;;
13435;SDS011;6790;49.520;8.504;2023-11-21T03:28:04;3.13;;;2.93;;
13435;SDS011;6790;49.520;8.504;2023-11-21T03:30:30;5.63;;;2.37;;
13435;SDS011;6790;49.520;8.504;2023-11-21T03:32:55;3.60;;;2.87;;
13435;SDS011;6790;49.520;8.504;2023-11-21T03:35:21;2.93;;;2.63;;
13435;SDS011;6790;49.520;8.504;2023-11-21T03:37:48;3.53;;;3.23;;
13435;SDS011;6790;49.520;8.504;2023-11-21T03:40:13;4.10;;;3.00;;
13435;SDS011;6790;49.520;8.504;2023-11-21T03:42:39;3.90;;;2.40;;
13435;SDS011;6790;49.520;8.504;2023-11-21T03:45:06;3.83;;;3.50;;
13435;SDS011;6790;49.520;8.504;2023-11-21T03:47:32;4.07;;;2.80;;
13435;SDS011;6790;49.520;8.504;2023-11-21T03:49:58;4.97;;;2.40;;
13435;SDS011;6790;49.520;8.504;2023-11-21T03:52:24;3.30;;;2.63;;
13435;SDS011;6790;49.520;8.504;2023-11-21T03:54:50;2.97;;;2.67;;
13435;SDS011;6790;49.520;8.504;2023-11-21T03:57:15;2.50;;;2.30;;
13435;SDS011;6790;49.520;8.504;2023-11-21T03:59:41;2.63;;;2.43;;
13435;SDS011;6790;49.520;8.504;2023-11-21T04:02:08;3.30;;;3.03;;
13435;SDS011;6790;49.520;8.504;2023-11-21T04:04:34;3.37;;;2.97;;
13435;SDS011;6790;49.520;8.504;2023-11-21T04:07:01;3.67;;;3.33;;
13435;SDS011;6790;49.520;8.504;2023-11-21T04:09:26;3.67;;;3.00;;
13435;SDS011;6790;49.520;8.504;2023-11-21T04:11:53;2.70;;;2.50;;
13435;SDS011;6790;49.520;8.504;2023-11-21T04:14:19;3.03;;;2.73;;
13435;SDS011;6790;49.520;8.504;2023-11-21T04:16:45;4.13;;;2.93;;
13435;SDS011;6790;49.520;8.504;2023-11-21T04:19:11;3.70;;;2.60;;
13435;SDS011;6790;49.520;8.504;2023-11-21T04:21:39;3.23;;;2.33;;
13435;SDS011;6790;49.520;8.504;2023-11-21T04:24:08;5.50;;;2.77;;
13435;SDS011;6790;49.520;8.504;2023-11-21T04:26:34;5.83;;;2.70;;
13435;SDS011;6790;49.520;8.504;2023-11-21T04:29:00;3.27;;;2.80;;
13435;SDS011;6790;49.520;8.504;2023-11-21T04:31:25;5.23;;;3.00;;
13435;SDS011;6790;49.520;8.504;2023-11-21T04:33:51;3.10;;;2.80;;
13435;SDS011;6790;49.520;8.504;2023-11-21T04:36:17;3.10;;;2.80;;
13435;SDS011;6790;49.520;8.504;2023-11-21T04:38:44;2.70;;;2.50;;
13435;SDS011;6790;49.520;8.504;2023-11-21T04:41:10;2.63;;;2.40;;
13435;SDS011;6790;49.520;8.504;2023-11-21T04:43:37;3.23;;;3.00;;
13435;SDS011;6790;49.520;8.504;2023-11-21T04:46:02;8.30;;;4.10;;
13435;SDS011;6790;49.520;8.504;2023-11-21T04:48:28;3.90;;;3.60;;
13435;SDS011;6790;49.520;8.504;2023-11-21T04:50:54;3.90;;;3.60;;
13435;SDS011;6790;49.520;8.504;2023-11-21T04:53:19;8.13;;;4.57;;
13435;SDS011;6790;49.520;8.504;2023-11-21T04:55:45;3.60;;;3.30;;
13435;SDS011;6790;49.520;8.504;2023-11-21T04:58:11;4.80;;;4.33;;
13435;SDS011;6790;49.520;8.504;2023-11-21T05:00:37;4.10;;;3.40;;
13435;SDS011;6790;49.520;8.504;2023-11-21T05:03:03;3.43;;;3.13;;
13435;SDS011;6790;49.520;8.504;2023-11-21T05:05:30;5.97;;;3.87;;
13435;SDS011;6790;49.520;8.504;2023-11-21T05:07:55;8.07;;;4.23;;
13435;SDS011;6790;49.520;8.504;2023-11-21T05:10:21;3.57;;;3.27;;
13435;SDS011;6790;49.520;8.504;2023-11-21T05:12:47;4.90;;;3.97;;
13435;SDS011;6790;49.520;8.504;2023-11-21T05:15:15;4.50;;;3.77;;
13435;SDS011;6790;49.520;8.504;2023-11-21T05:17:42;5.00;;;4.50;;
13435;SDS011;6790;49.520;8.504;2023-11-21T05:20:12;5.47;;;3.97;;
13435;SDS011;6790;49.520;8.504;2023-11-21T05:22:39;6.57;;;4.03;;
13435;SDS011;6790;49.520;8.504;2023-11-21T05:25:06;5.47;;;4.17;;
13435;SDS011;6790;49.520;8.504;2023-11-21T05:27:33;5.77;;;4.83;;
13435;SDS011;6790;49.520;8.504;2023-11-21T05:30:00;4.63;;;4.23;;
13435;SDS011;6790;49.520;8.504;2023-11-21T05:32:27;5.73;;;4.13;;
13435;SDS011;6790;49.520;8.504;2023-11-21T05:34:53;10.40;;;7.93;;
13435;SDS011;6790;49.520;8.504;2023-11-21T05:37:18;6.73;;;4.90;;
13435;SDS011;6790;49.520;8.504;2023-11-21T05:39:44;5.07;;;4.57;;
13435;SDS011;6790;49.520;8.504;2023-11-21T05:42:10;9.23;;;5.60;;
13435;SDS011;6790;49.520;8.504;2023-11-21T05:44:36;5.07;;;4.53;;
13435;SDS011;6790;49.520;8.504;2023-11-21T05:47:02;18.83;;;11.73;;
13435;SDS011;6790;49.520;8.504;2023-11-21T05:49:28;6.03;;;5.30;;
13435;SDS011;6790;49.520;8.504;2023-11-21T05:51:56;9.33;;;5.57;;
13435;SDS011;6790;49.520;8.504;2023-11-21T05:54:22;4.43;;;3.53;;
13435;SDS011;6790;49.520;8.504;2023-11-21T05:56:48;3.83;;;3.40;;
13435;SDS011;6790;49.520;8.504;2023-11-21T05:59:14;3.70;;;3.40;;
13435;SDS011;6790;49.520;8.504;2023-11-21T06:01:40;4.00;;;3.27;;
13435;SDS011;6790;49.520;8.504;2023-11-21T06:04:06;27.53;;;16.47;;
13435;SDS011;6790;49.520;8.504;2023-11-21T06:06:33;9.93;;;7.43;;
13435;SDS011;6790;49.520;8.504;2023-11-21T06:08:59;21.30;;;13.13;;
13435;SDS011;6790;49.520;8.504;2023-11-21T06:11:25;13.83;;;8.63;;
13435;SDS011;6790;49.520;8.504;2023-11-21T06:13:50;7.07;;;4.87;;
13435;SDS011;6790;49.520;8.504;2023-11-21T06:16:18;6.67;;;5.43;;
13435;SDS011;6790;49.520;8.504;2023-11-21T06:18:45;6.63;;;4.43;;
13435;SDS011;6790;49.520;8.504;2023-11-21T06:21:11;7.90;;;4.67;;
13435;SDS011;6790;49.520;8.504;2023-11-21T06:23:37;7.00;;;4.63;;
13435;SDS011;6790;49.520;8.504;2023-11-21T06:26:03;4.83;;;3.80;;
13435;SDS011;6790;49.520;8.504;2023-11-21T06:28:29;6.07;;;4.60;;
13435;SDS011;6790;49.520;8.504;2023-11-21T06:30:55;6.83;;;5.60;;
13435;SDS011;6790;49.520;8.504;2023-11-21T06:33:23;7.73;;;4.47;;
13435;SDS011;6790;49.520;8.504;2023-11-21T06:35:49;12.53;;;5.27;;
13435;SDS011;6790;49.520;8.504;2023-11-21T06:38:14;7.27;;;5.10;;
13435;SDS011;6790;49.520;8.504;2023-11-21T06:40:40;7.43;;;5.60;;
13435;SDS011;6790;49.520;8.504;2023-11-21T06:43:06;7.17;;;5.47;;
13435;SDS011;6790;49.520;8.504;2023-11-21T06:45:32;7.33;;;5.37;;
13435;SDS011;6790;49.520;8.504;2023-11-21T06:47:59;7.57;;;5.37;;
13435;SDS011;6790;49.520;8.504;2023-11-21T06:50:25;8.83;;;4.80;;
13435;SDS011;6790;49.520;8.504;2023-11-21T06:52:51;8.13;;;5.83;;
13435;SDS011;6790;49.520;8.504;2023-11-21T06:55:16;7.53;;;5.13;;
13435;SDS011;6790;49.520;8.504;2023-11-21T06:57:42;7.50;;;5.00;;
13435;SDS011;6790;49.520;8.504;2023-11-21T07:00:08;7.53;;;4.97;;
13435;SDS011;6790;49.520;8.504;2023-11-21T07:02:34;9.90;;;6.07;;
13435;SDS011;6790;49.520;8.504;2023-11-21T07:05:00;6.57;;;5.00;;
13435;SDS011;6790;49.520;8.504;2023-11-21T07:07:27;7.03;;;4.67;;
13435;SDS011;6790;49.520;8.504;2023-11-21T07:09:53;7.60;;;5.47;;
13435;SDS011;6790;49.520;8.504;2023-11-21T07:12:19;7.93;;;5.67;;
13435;SDS011;6790;49.520;8.504;2023-11-21T07:14:44;7.70;;;5.40;;
13435;SDS011;6790;49.520;8.504;2023-11-21T07:17:10;8.07;;;5.37;;
13435;SDS011;6790;49.520;8.504;2023-11-21T07:19:37;6.87;;;4.40;;
13435;SDS011;6790;49.520;8.504;2023-11-21T07:22:06;6.17;;;4.80;;
13435;SDS011;6790;49.520;8.504;2023-11-21T07:24:33;5.83;;;4.67;;
13435;SDS011;6790;49.520;8.504;2023-11-21T07:27:00;6.33;;;4.30;;
13435;SDS011;6790;49.520;8.504;2023-11-21T07:29:25;6.53;;;4.53;;
13435;SDS011;6790;49.520;8.504;2023-11-21T07:31:52;6.37;;;5.60;;
13435;SDS011;6790;49.520;8.504;2023-11-21T07:34:21;7.37;;;5.53;;
13435;SDS011;6790;49.520;8.504;2023-11-21T07:36:47;5.97;;;4.60;;
13435;SDS011;6790;49.520;8.504;2023-11-21T07:39:13;6.37;;;4.70;;
13435;SDS011;6790;49.520;8.504;2023-11-21T07:41:43;7.93;;;6.10;;
13435;SDS011;6790;49.520;8.504;2023-11-21T07:44:13;7.07;;;5.77;;
13435;SDS011;6790;49.520;8.504;2023-11-21T07:46:40;6.63;;;5.07;;
13435;SDS011;6790;49.520;8.504;2023-11-21T07:49:06;7.40;;;4.87;;
13435;SDS011;6790;49.520;8.504;2023-11-21T07:51:32;4.97;;;4.47;;
13435;SDS011;6790;49.520;8.504;2023-11-21T07:53:57;5.90;;;4.47;;
13435;SDS011;6790;49.520;8.504;2023-11-21T07:56:23;6.20;;;4.10;;
13435;SDS011;6790;49.520;8.504;2023-11-21T07:58:49;4.03;;;3.63;;
13435;SDS011;6790;49.520;8.504;2023-11-21T08:01:15;4.80;;;3.20;;
13435;SDS011;6790;49.520;8.504;2023-11-21T08:03:40;4.23;;;3.83;;
13435;SDS011;6790;49.520;8.504;2023-11-21T08:06:06;4.07;;;3.30;;
13435;SDS011;6790;49.520;8.504;2023-11-21T08:08:32;4.37;;;3.97;;
13435;SDS011;6790;49.520;8.504;2023-11-21T08:10:58;3.73;;;3.43;;
13435;SDS011;6790;49.520;8.504;2023-11-21T08:13:26;3.93;;;3.57;;
13435;SDS011;6790;49.520;8.504;2023-11-21T08:15:55;3.40;;;3.10;;
13435;SDS011;6790;49.520;8.504;2023-11-21T08:18:26;6.53;;;3.30;;
13435;SDS011;6790;49.520;8.504;2023-11-21T08:20:52;4.27;;;3.37;;
13435;SDS011;6790;49.520;8.504;2023-11-21T08:23:20;3.63;;;3.30;;
13435;SDS011;6790;49.520;8.504;2023-11-21T08:25:50;4.47;;;3.40;;
13435;SDS011;6790;49.520;8.504;2023-11-21T08:28:16;3.73;;;3.30;;
13435;SDS011;6790;49.520;8.504;2023-11-21T08:30:42;3.90;;;3.57;;
13435;SDS011;6790;49.520;8.504;2023-11-21T08:33:09;3.70;;;3.40;;
13435;SDS011;6790;49.520;8.504;2023-11-21T08:35:36;3.67;;;3.37;;
13435;SDS011;6790;49.520;8.504;2023-11-21T08:38:02;4.33;;;3.93;;
13435;SDS011;6790;49.520;8.504;2023-11-21T08:40:28;3.43;;;3.13;;
13435;SDS011;6790;49.520;8.504;2023-11-21T08:42:54;3.40;;;2.20;;
13435;SDS011;6790;49.520;8.504;2023-11-21T08:45:21;3.30;;;3.00;;
13435;SDS011;6790;49.520;8.504;2023-11-21T08:47:47;3.00;;;2.70;;
13435;SDS011;6790;49.520;8.504;2023-11-21T08:50:13;2.40;;;2.30;;
13435;SDS011;6790;49.520;8.504;2023-11-21T08:52:40;1.90;;;1.80;;
13435;SDS011;6790;49.520;8.504;2023-11-21T08:55:07;2.00;;;1.90;;
13435;SDS011;6790;49.520;8.504;2023-11-21T08:57:34;2.20;;;2.10;;
13435;SDS011;6790;49.520;8.504;2023-11-21T09:00:03;3.00;;;2.80;;
13435;SDS011;6790;49.520;8.504;2023-11-21T09:02:40;2.90;;;2.70;;
13435;SDS011;6790;49.520;8.504;2023-11-21T09:05:07;2.30;;;1.90;;
13435;SDS011;6790;49.520;8.504;2023-11-21T09:07:34;3.07;;;2.87;;
13435;SDS011;6790;49.520;8.504;2023-11-21T09:10:05;2.57;;;2.37;;
13435;SDS011;6790;49.520;8.504;2023-11-21T09:12:32;3.00;;;2.80;;
13435;SDS011;6790;49.520;8.504;2023-11-21T09:15:00;5.10;;;3.43;;
13435;SDS011;6790;49.520;8.504;2023-11-21T09:17:29;3.30;;;3.00;;
13435;SDS011;6790;49.520;8.504;2023-11-21T09:19:55;4.27;;;3.63;;
13435;SDS011;6790;49.520;8.504;2023-11-21T09:22:22;3.63;;;3.27;;
13435;SDS011;6790;49.520;8.504;2023-11-21T09:24:49;3.70;;;3.33;;
13435;SDS011;6790;49.520;8.504;2023-11-21T09:27:16;4.10;;;3.47;;
13435;SDS011;6790;49.520;8.504;2023-11-21T09:29:42;4.33;;;3.93;;
13435;SDS011;6790;49.520;8.504;2023-11-21T09:32:08;4.87;;;4.47;;
13435;SDS011;6790;49.520;8.504;2023-11-21T09:34:37;4.23;;;3.63;;
13435;SDS011;6790;49.520;8.504;2023-11-21T09:37:06;4.50;;;3.20;;
13435;SDS011;6790;49.520;8.504;2023-11-21T09:39:33;4.70;;;3.80;;
13435;SDS011;6790;49.520;8.504;2023-11-21T09:44:45;6.97;;;4.57;;
13435;SDS011;6790;49.520;8.504;2023-11-21T09:47:17;6.27;;;4.57;;
13435;SDS011;6790;49.520;8.504;2023-11-21T09:49:47;6.80;;;5.23;;
13435;SDS011;6790;49.520;8.504;2023-11-21T09:52:32;10.87;;;4.80;;
13435;SDS011;6790;49.520;8.504;2023-11-21T09:55:36;6.70;;;4.80;;
13435;SDS011;6790;49.520;8.504;2023-11-21T09:58:04;6.93;;;6.03;;
13435;SDS011;6790;49.520;8.504;2023-11-21T10:00:33;7.43;;;6.03;;
13435;SDS011;6790;49.520;8.504;2023-11-21T10:02:58;7.70;;;5.20;;
13435;SDS011;6790;49.520;8.504;2023-11-21T10:05:25;8.23;;;5.33;;
13435;SDS011;6790;49.520;8.504;2023-11-21T10:07:51;8.67;;;5.83;;
13435;SDS011;6790;49.520;8.504;2023-11-21T10:10:20;7.87;;;5.73;;
13435;SDS011;6790;49.520;8.504;2023-11-21T10:12:49;8.87;;;6.67;;
13435;SDS011;6790;49.520;8.504;2023-11-21T10:15:18;9.10;;;6.37;;
13435;SDS011;6790;49.520;8.504;2023-11-21T10:17:48;8.03;;;5.90;;
13435;SDS011;6790;49.520;8.504;2023-11-21T10:20:14;10.47;;;6.57;;
13435;SDS011;6790;49.520;8.504;2023-11-21T10:22:41;9.20;;;6.40;;
13435;SDS011;6790;49.520;8.504;2023-11-21T10:25:08;16.30;;;9.57;;
13435;SDS011;6790;49.520;8.504;2023-11-21T10:27:35;12.93;;;8.87;;
13435;SDS011;6790;49.520;8.504;2023-11-21T10:30:04;8.33;;;5.83;;
13435;SDS011;6790;49.520;8.504;2023-11-21T10:32:31;10.80;;;6.50;;
13435;SDS011;6790;49.520;8.504;2023-11-21T10:34:58;6.37;;;5.03;;
13435;SDS011;6790;49.520;8.504;2023-11-21T10:37:31;5.67;;;4.47;;
13435;SDS011;6790;49.520;8.504;2023-11-21T10:40:01;8.87;;;5.30;;
13435;SDS011;6790;49.520;8.504;2023-11-21T10:42:27;7.73;;;5.20;;
13435;SDS011;6790;49.520;8.504;2023-11-21T10:44:53;9.20;;;5.47;;
13435;SDS011;6790;49.520;8.504;2023-11-21T10:47:19;6.73;;;5.13;;
13435;SDS011;6790;49.520;8.504;2023-11-21T10:49:48;7.17;;;5.27;;
13435;SDS011;6790;49.520;8.504;2023-11-21T10:52:14;6.77;;;5.47;;
13435;SDS011;6790;49.520;8.504;2023-11-21T10:54:43;6.90;;;4.63;;
13435;SDS011;6790;49.520;8.504;2023-11-21T10:57:09;6.70;;;5.03;;
13435;SDS011;6790;49.520;8.504;2023-11-21T10:59:36;5.93;;;4.87;;
13435;SDS011;6790;49.520;8.504;2023-11-21T11:02:04;7.03;;;4.80;;
13435;SDS011;6790;49.520;8.504;2023-11-21T11:04:47;6.20;;;4.13;;
13435;SDS011;6790;49.520;8.504;2023-11-21T11:07:13;7.53;;;5.00;;
13435;SDS011;6790;49.520;8.504;2023-11-21T11:09:43;9.03;;;5.00;;
13435;SDS011;6790;49.520;8.504;2023-11-21T11:12:10;6.53;;;4.43;;
13435;SDS011;6790;49.520;8.504;2023-11-21T11:14:36;8.97;;;5.63;;
13435;SDS011;6790;49.520;8.504;2023-11-21T11:17:06;8.53;;;4.97;;
13435;SDS011;6790;49.520;8.504;2023-11-21T11:19:34;6.37;;;4.93;;
13435;SDS011;6790;49.520;8.504;2023-11-21T11:22:06;7.50;;;5.17;;
13435;SDS011;6790;49.520;8.504;2023-11-21T11:27:58;6.20;;;4.83;;
13435;SDS011;6790;49.520;8.504;2023-11-21T11:36:12;5.90;;;4.23;;
13435;SDS011;6790;49.520;8.504;2023-11-21T11:38:59;10.57;;;5.07;;
13435;SDS011;6790;49.520;8.504;2023-11-21T11:41:29;5.23;;;4.73;;
13435;SDS011;6790;49.520;8.504;2023-11-21T11:44:02;4.93;;;4.27;;
13435;SDS011;6790;49.520;8.504;2023-11-21T11:46:44;7.20;;;4.47;;
13435;SDS011;6790;49.520;8.504;2023-11-21T11:49:23;8.20;;;4.70;;
13435;SDS011;6790;49.520;8.504;2023-11-21T11:55:05;5.47;;;4.87;;
13435;SDS011;6790;49.520;8.504;2023-11-21T11:57:35;6.80;;;5.37;;
13435;SDS011;6790;49.520;8.504;2023-11-21T12:00:17;7.57;;;5.20;;
13435;SDS011;6790;49.520;8.504;2023-11-21T12:02:47;6.37;;;4.47;;
13435;SDS011;6790;49.520;8.504;2023-11-21T12:05:16;6.37;;;5.77;;
13435;SDS011;6790;49.520;8.504;2023-11-21T12:07:48;7.13;;;5.20;;
13435;SDS011;6790;49.520;8.504;2023-11-21T12:10:20;6.63;;;5.60;;
13435;SDS011;6790;49.520;8.504;2023-11-21T12:12:53;7.10;;;5.60;;
13435;SDS011;6790;49.520;8.504;2023-11-21T12:15:26;8.97;;;5.73;;
13435;SDS011;6790;49.520;8.504;2023-11-21T12:17:55;5.27;;;4.70;;
13435;SDS011;6790;49.520;8.504;2023-11-21T12:20:22;5.03;;;4.53;;
13435;SDS011;6790;49.520;8.504;2023-11-21T12:22:50;6.60;;;4.50;;
13435;SDS011;6790;49.520;8.504;2023-11-21T12:25:18;5.43;;;3.77;;
13435;SDS011;6790;49.520;8.504;2023-11-21T12:27:49;4.53;;;3.20;;
13435;SDS011;6790;49.520;8.504;2023-11-21T12:30:17;5.80;;;5.20;;
13435;SDS011;6790;49.520;8.504;2023-11-21T12:32:53;6.07;;;3.40;;
13435;SDS011;6790;49.520;8.504;2023-11-21T12:35:26;3.90;;;3.30;;
13435;SDS011;6790;49.520;8.504;2023-11-21T12:37:56;4.60;;;4.20;;
13435;SDS011;6790;49.520;8.504;2023-11-21T12:40:22;4.13;;;3.47;;
13435;SDS011;6790;49.520;8.504;2023-11-21T12:42:49;4.70;;;3.70;;
13435;SDS011;6790;49.520;8.504;2023-11-21T12:45:21;6.13;;;3.20;;
13435;SDS011;6790;49.520;8.504;2023-11-21T12:47:51;5.83;;;3.93;;
13435;SDS011;6790;49.520;8.504;2023-11-21T12:50:24;5.03;;;4.10;;
13435;SDS011;6790;49.520;8.504;2023-11-21T12:53:06;4.83;;;4.43;;
13435;SDS011;6790;49.520;8.504;2023-11-21T12:55:35;4.57;;;4.17;;
13435;SDS011;6790;49.520;8.504;2023-11-21T12:58:04;4.30;;;3.97;;
13435;SDS011;6790;49.520;8.504;2023-11-21T13:00:36;4.17;;;3.43;;
13435;SDS011;6790;49.520;8.504;2023-11-21T13:03:05;5.07;;;3.93;;
13435;SDS011;6790;49.520;8.504;2023-11-21T13:05:33;3.63;;;3.33;;
13435;SDS011;6790;49.520;8.504;2023-11-21T13:08:04;4.47;;;4.00;;
13435;SDS011;6790;49.520;8.504;2023-11-21T13:10:38;4.70;;;3.47;;
13435;SDS011;6790;49.520;8.504;2023-11-21T13:13:07;3.67;;;3.23;;
13435;SDS011;6790;49.520;8.504;2023-11-21T13:15:39;4.40;;;3.10;;
13435;SDS011;6790;49.520;8.504;2023-11-21T13:18:08;7.17;;;3.83;;
13435;SDS011;6790;49.520;8.504;2023-11-21T13:20:36;4.57;;;4.10;;
13435;SDS011;6790;49.520;8.504;2023-11-21T13:23:06;3.77;;;3.10;;
13435;SDS011;6790;49.520;8.504;2023-11-21T13:25:33;4.63;;;3.20;;
13435;SDS011;6790;49.520;8.504;2023-11-21T13:28:00;8.77;;;3.00;;
13435;SDS011;6790;49.520;8.504;2023-11-21T13:30:25;3.70;;;3.27;;
13435;SDS011;6790;49.520;8.504;2023-11-21T13:32:52;4.83;;;3.60;;
13435;SDS011;6790;49.520;8.504;2023-11-21T13:35:22;3.40;;;3.10;;
13435;SDS011;6790;49.520;8.504;2023-11-21T13:37:56;2.87;;;2.50;;
13435;SDS011;6790;49.520;8.504;2023-11-21T13:40:25;6.20;;;4.47;;
13435;SDS011;6790;49.520;8.504;2023-11-21T13:42:55;4.10;;;3.30;;
13435;SDS011;6790;49.520;8.504;2023-11-21T13:45:24;5.73;;;3.27;;
13435;SDS011;6790;49.520;8.504;2023-11-21T13:47:52;5.37;;;2.73;;
13435;SDS011;6790;49.520;8.504;2023-11-21T13:50:26;5.20;;;2.70;;
13435;SDS011;6790;49.520;8.504;2023-11-21T13:52:59;4.60;;;3.80;;
13435;SDS011;6790;49.520;8.504;2023-11-21T13:55:33;4.43;;;3.13;;
13435;SDS011;6790;49.520;8.504;2023-11-21T13:58:01;6.13;;;3.10;;
13435;SDS011;6790;49.520;8.504;2023-11-21T14:00:27;3.17;;;2.90;;
13435;SDS011;6790;49.520;8.504;2023-11-21T14:03:11;3.20;;;2.20;;
13435;SDS011;6790;49.520;8.504;2023-11-21T14:05:47;4.63;;;2.70;;
13435;SDS011;6790;49.520;8.504;2023-11-21T14:08:22;4.20;;;2.63;;
13435;SDS011;6790;49.520;8.504;2023-11-21T14:10:53;6.47;;;2.97;;
13435;SDS011;6790;49.520;8.504;2023-11-21T14:13:24;4.57;;;3.10;;
13435;SDS011;6790;49.520;8.504;2023-11-21T14:15:53;7.33;;;3.00;;
13435;SDS011;6790;49.520;8.504;2023-11-21T14:18:27;5.30;;;3.10;;
13435;SDS011;6790;49.520;8.504;2023-11-21T14:21:03;4.27;;;3.87;;
13435;SDS011;6790;49.520;8.504;2023-11-21T14:23:35;3.80;;;2.90;;
13435;SDS011;6790;49.520;8.504;2023-11-21T14:26:03;3.20;;;2.70;;
13435;SDS011;6790;49.520;8.504;2023-11-21T14:28:31;4.10;;;3.70;;
13435;SDS011;6790;49.520;8.504;2023-11-21T14:30:57;3.63;;;3.33;;
13435;SDS011;6790;49.520;8.504;2023-11-21T14:33:22;5.53;;;2.97;;
13435;SDS011;6790;49.520;8.504;2023-11-21T14:35:48;4.87;;;3.20;;
13435;SDS011;6790;49.520;8.504;2023-11-21T14:38:15;4.23;;;3.50;;
13435;SDS011;6790;49.520;8.504;2023-11-21T14:40:41;5.40;;;3.43;;
13435;SDS011;6790;49.520;8.504;2023-11-21T14:43:06;7.37;;;3.60;;
13435;SDS011;6790;49.520;8.504;2023-11-21T14:45:33;8.40;;;4.57;;
13435;SDS011;6790;49.520;8.504;2023-11-21T14:47:59;7.43;;;3.80;;
13435;SDS011;6790;49.520;8.504;2023-11-21T14:50:36;10.67;;;3.97;;
13435;SDS011;6790;49.520;8.504;2023-11-21T14:53:04;5.13;;;3.37;;
13435;SDS011;6790;49.520;8.504;2023-11-21T14:55:34;5.70;;;3.57;;
13435;SDS011;6790;49.520;8.504;2023-11-21T14:58:18;4.93;;;3.47;;
13435;SDS011;6790;49.520;8.504;2023-11-21T15:01:00;3.67;;;3.10;;
13435;SDS011;6790;49.520;8.504;2023-11-21T15:03:26;6.03;;;3.43;;
13435;SDS011;6790;49.520;8.504;2023-11-21T15:06:00;6.57;;;3.90;;
13435;SDS011;6790;49.520;8.504;2023-11-21T15:08:53;6.50;;;3.27;;
13435;SDS011;6790;49.520;8.504;2023-11-21T15:11:53;5.23;;;3.63;;
13435;SDS011;6790;49.520;8.504;2023-11-21T15:14:23;4.27;;;3.70;;
13435;SDS011;6790;49.520;8.504;2023-11-21T15:16:51;4.93;;;3.53;;
13435;SDS011;6790;49.520;8.504;2023-11-21T15:19:18;4.67;;;3.47;;
13435;SDS011;6790;49.520;8.504;2023-11-21T15:21:50;4.17;;;3.83;;